createdAt,value
2023-03-22T00:01:24.776Z,5.05
2023-03-22T00:03:52.010Z,5.05
2023-03-22T00:06:18.960Z,5.01
2023-03-22T00:08:50.016Z,4.96
2023-03-22T00:11:17.088Z,4.96
2023-03-22T00:13:46.275Z,4.98
2023-03-22T00:16:16.881Z,4.96
2023-03-22T00:18:43.345Z,4.93
2023-03-22T00:21:16.737Z,4.92
2023-03-22T00:23:44.149Z,4.96
2023-03-22T00:26:13.417Z,5.00
2023-03-22T00:28:40.652Z,4.99
2023-03-22T00:31:08.115Z,4.98
2023-03-22T00:33:35.679Z,4.94
2023-03-22T00:36:08.865Z,4.91
2023-03-22T00:38:42.625Z,4.91
2023-03-22T00:41:15.329Z,4.86
2023-03-22T00:43:42.547Z,4.79
2023-03-22T00:46:11.003Z,4.74
2023-03-22T00:48:37.608Z,4.70
2023-03-22T00:51:04.976Z,4.63
2023-03-22T00:53:35.864Z,4.54
2023-03-22T00:56:03.822Z,4.49
2023-03-22T00:58:30.252Z,4.45
2023-03-22T01:00:56.930Z,4.40
2023-03-22T01:03:23.929Z,4.35
2023-03-22T01:05:54.774Z,4.29
2023-03-22T01:08:22.647Z,4.21
2023-03-22T01:10:49.756Z,4.15
2023-03-22T01:13:17.916Z,4.10
2023-03-22T01:15:47.056Z,4.06
2023-03-22T01:18:16.714Z,4.00
2023-03-22T01:20:43.189Z,3.97
2023-03-22T01:23:09.634Z,3.93
2023-03-22T01:25:36.377Z,3.93
2023-03-22T01:28:02.898Z,3.85
2023-03-22T01:30:29.664Z,3.80
2023-03-22T01:32:56.266Z,3.81
2023-03-22T01:35:22.908Z,3.82
2023-03-22T01:37:49.667Z,3.82
2023-03-22T01:40:16.637Z,3.80
2023-03-22T01:42:43.154Z,3.78
2023-03-22T01:45:12.515Z,3.73
2023-03-22T01:47:43.021Z,3.65
2023-03-22T01:50:09.786Z,3.58
2023-03-22T01:52:36.990Z,3.53
2023-03-22T01:55:05.729Z,3.51
2023-03-22T01:57:36.837Z,3.54
2023-03-22T02:00:12.644Z,3.49
2023-03-22T02:02:39.085Z,3.46
2023-03-22T02:05:05.865Z,3.41
2023-03-22T02:07:32.368Z,3.41
2023-03-22T02:09:59.154Z,3.40
2023-03-22T02:12:28.556Z,3.41
2023-03-22T02:15:24.336Z,3.41
2023-03-22T02:18:30.776Z,3.36
2023-03-22T02:21:56.046Z,3.31
2023-03-22T02:25:01.005Z,3.24
2023-03-22T02:27:34.961Z,3.16
2023-03-22T02:30:23.130Z,3.11
2023-03-22T02:32:52.390Z,3.05
2023-03-22T02:35:33.699Z,2.99
2023-03-22T02:38:32.295Z,2.92
2023-03-22T02:41:21.943Z,2.91
2023-03-22T02:43:48.314Z,2.87
2023-03-22T02:46:38.261Z,2.81
2023-03-22T02:49:35.213Z,2.76
2023-03-22T02:52:19.613Z,2.69
2023-03-22T02:54:54.490Z,2.66
2023-03-22T02:57:37.194Z,2.70
2023-03-22T03:00:10.911Z,2.71
2023-03-22T03:02:41.508Z,2.68
2023-03-22T03:05:10.275Z,2.64
2023-03-22T03:07:38.020Z,2.62
2023-03-22T03:10:05.965Z,2.59
2023-03-22T03:12:32.392Z,2.58
2023-03-22T03:14:58.888Z,2.62
2023-03-22T03:17:33.511Z,2.67
2023-03-22T03:20:18.587Z,2.71
2023-03-22T03:22:50.863Z,2.76
2023-03-22T03:25:30.693Z,2.83
2023-03-22T03:28:15.410Z,2.93
2023-03-22T03:30:55.828Z,2.99
2023-03-22T03:33:26.014Z,3.03
2023-03-22T03:36:00.459Z,3.11
2023-03-22T03:38:31.054Z,3.19
2023-03-22T03:41:01.574Z,3.24
2023-03-22T03:43:28.085Z,3.30
2023-03-22T03:45:55.263Z,3.37
2023-03-22T03:48:26.152Z,3.44
2023-03-22T03:50:53.661Z,3.48
2023-03-22T03:53:20.218Z,3.52
2023-03-22T03:55:46.715Z,3.56
2023-03-22T03:58:15.413Z,3.60
2023-03-22T04:00:42.546Z,3.64
2023-03-22T04:03:09.331Z,3.69
2023-03-22T04:05:36.284Z,3.74
2023-03-22T04:08:02.962Z,3.77
2023-03-22T04:10:29.656Z,3.78
2023-03-22T04:12:56.023Z,3.74
2023-03-22T04:15:23.530Z,3.74
2023-03-22T04:17:51.070Z,3.75
2023-03-22T04:20:17.822Z,3.76
2023-03-22T04:22:46.204Z,3.74
2023-03-22T04:25:13.745Z,3.71
2023-03-22T04:27:41.381Z,3.67
2023-03-22T04:30:11.759Z,3.61
2023-03-22T04:32:39.112Z,3.57
2023-03-22T04:35:05.932Z,3.60
2023-03-22T04:37:33.045Z,3.65
2023-03-22T04:39:59.978Z,3.68
2023-03-22T04:42:26.881Z,3.71
2023-03-22T04:44:53.508Z,3.78
2023-03-22T04:47:20.025Z,3.84
2023-03-22T04:49:47.492Z,3.92
2023-03-22T04:52:14.907Z,3.96
2023-03-22T04:54:41.806Z,3.98
2023-03-22T04:57:08.993Z,3.99
2023-03-22T04:59:35.386Z,4.01
2023-03-22T05:02:02.354Z,4.03
2023-03-22T05:04:28.889Z,4.03
2023-03-22T05:06:55.398Z,4.07
2023-03-22T05:09:23.505Z,4.10
2023-03-22T05:11:50.485Z,4.12
2023-03-22T05:14:16.926Z,4.12
2023-03-22T05:16:43.408Z,4.15
2023-03-22T05:19:15.651Z,4.19
2023-03-22T05:21:43.413Z,4.28
2023-03-22T05:24:10.655Z,4.35
2023-03-22T05:26:41.530Z,4.39
2023-03-22T05:29:10.335Z,4.43
2023-03-22T05:31:37.002Z,4.49
2023-03-22T05:34:03.922Z,4.52
2023-03-22T05:36:30.583Z,4.55
2023-03-22T05:39:04.066Z,4.59
2023-03-22T05:41:31.094Z,4.67
2023-03-22T05:43:57.555Z,4.72
2023-03-22T05:46:54.149Z,4.76
2023-03-22T05:49:21.703Z,4.77
2023-03-22T05:51:50.051Z,4.79
2023-03-22T05:54:16.550Z,4.85
2023-03-22T05:56:43.644Z,4.93
2023-03-22T05:59:10.302Z,5.04
2023-03-22T06:01:37.137Z,5.12
2023-03-22T06:04:04.021Z,5.17
2023-03-22T06:06:30.871Z,5.18
2023-03-22T06:09:07.303Z,5.24
2023-03-22T06:11:42.460Z,5.34
2023-03-22T06:14:09.506Z,5.43
2023-03-22T06:16:36.535Z,5.47
2023-03-22T06:19:03.055Z,5.49
2023-03-22T06:21:29.771Z,5.49
2023-03-22T06:23:56.344Z,5.51
2023-03-22T06:26:22.785Z,5.58
2023-03-22T06:28:50.436Z,5.66
2023-03-22T06:31:17.320Z,5.68
2023-03-22T06:33:44.881Z,5.69
2023-03-22T06:36:11.472Z,5.74
2023-03-22T06:38:38.080Z,5.82
2023-03-22T06:41:05.226Z,5.88
2023-03-22T06:43:32.123Z,5.96
2023-03-22T06:45:58.615Z,6.03
2023-03-22T06:48:28.640Z,6.14
2023-03-22T06:50:55.142Z,6.25
2023-03-22T06:53:21.994Z,6.33
2023-03-22T06:55:49.040Z,6.38
2023-03-22T06:58:22.983Z,6.40
2023-03-22T07:00:49.750Z,6.43
2023-03-22T07:03:19.665Z,6.46
2023-03-22T07:05:46.592Z,6.46
2023-03-22T07:08:13.527Z,6.51
2023-03-22T07:10:40.629Z,6.61
2023-03-22T07:13:07.217Z,6.69
2023-03-22T07:15:34.438Z,6.74
2023-03-22T07:18:02.203Z,6.80
2023-03-22T07:20:29.178Z,6.88
2023-03-22T07:22:55.680Z,6.95
2023-03-22T07:25:22.356Z,7.02
2023-03-22T07:27:48.918Z,7.06
2023-03-22T07:30:15.962Z,7.09
2023-03-22T07:32:42.841Z,7.13
2023-03-22T07:35:09.369Z,7.15
2023-03-22T07:37:35.844Z,7.18
2023-03-22T07:40:04.234Z,7.27
2023-03-22T07:42:31.422Z,7.41
2023-03-22T07:44:58.706Z,7.52
2023-03-22T07:47:40.030Z,7.57
2023-03-22T07:50:08.982Z,7.67
2023-03-22T07:52:36.444Z,7.86
2023-03-22T07:55:04.297Z,8.02
2023-03-22T07:57:30.955Z,8.15
2023-03-22T08:00:02.917Z,8.26
2023-03-22T08:02:30.597Z,8.37
2023-03-22T08:04:57.293Z,8.45
2023-03-22T08:07:24.601Z,8.59
2023-03-22T08:09:51.731Z,8.74
2023-03-22T08:12:18.824Z,8.82
2023-03-22T08:14:49.827Z,8.87
2023-03-22T08:17:17.533Z,8.89
2023-03-22T08:19:57.929Z,8.95
2023-03-22T08:22:29.063Z,9.01
2023-03-22T08:24:55.933Z,9.07
2023-03-22T08:27:22.337Z,9.06
2023-03-22T08:29:48.853Z,9.08
2023-03-22T08:32:16.270Z,9.14
2023-03-22T08:34:43.842Z,9.26
2023-03-22T08:37:12.064Z,9.35
2023-03-22T08:39:39.185Z,9.42
2023-03-22T08:42:05.711Z,9.42
2023-03-22T08:44:32.139Z,9.42
2023-03-22T08:46:58.938Z,9.46
2023-03-22T08:49:26.570Z,9.54
2023-03-22T08:51:53.383Z,9.62
2023-03-22T08:54:20.162Z,9.71
2023-03-22T08:56:47.645Z,9.78
2023-03-22T08:59:14.155Z,9.90
2023-03-22T09:01:40.730Z,9.96
2023-03-22T09:04:10.199Z,9.98
2023-03-22T09:06:38.096Z,9.97
2023-03-22T09:09:04.551Z,9.86
2023-03-22T09:11:30.980Z,9.75
2023-03-22T09:13:57.384Z,9.66
2023-03-22T09:16:24.021Z,9.59
2023-03-22T09:18:50.985Z,9.55
2023-03-22T09:21:17.901Z,9.51
2023-03-22T09:23:47.398Z,9.48
2023-03-22T09:26:14.475Z,9.39
2023-03-22T09:28:41.071Z,9.33
2023-03-22T09:31:09.871Z,9.29
2023-03-22T09:33:38.330Z,9.23
2023-03-22T09:36:05.946Z,9.20
2023-03-22T09:38:35.816Z,9.23
2023-03-22T09:41:06.815Z,9.24
2023-03-22T09:43:37.311Z,9.24
2023-03-22T09:46:10.207Z,9.27
2023-03-22T09:48:40.242Z,9.33
2023-03-22T09:51:18.775Z,9.38
2023-03-22T09:53:45.251Z,9.43
2023-03-22T09:56:22.432Z,9.44
2023-03-22T09:59:10.662Z,9.47
2023-03-22T10:01:48.001Z,9.52
2023-03-22T10:04:35.724Z,9.54
2023-03-22T10:07:20.715Z,9.55
2023-03-22T10:10:12.031Z,9.55
2023-03-22T10:12:53.152Z,9.58
2023-03-22T10:15:28.168Z,9.60
2023-03-22T10:17:57.526Z,9.64
2023-03-22T10:20:33.711Z,9.74
2023-03-22T10:23:03.408Z,9.79
2023-03-22T10:25:39.463Z,9.85
2023-03-22T10:28:16.903Z,9.92
2023-03-22T10:30:50.371Z,9.96
2023-03-22T10:33:36.420Z,10.00
2023-03-22T10:36:05.549Z,10.07
2023-03-22T10:38:36.886Z,10.15
2023-03-22T10:41:04.878Z,10.25
2023-03-22T10:43:40.715Z,10.31
2023-03-22T10:46:14.948Z,10.41
2023-03-22T10:48:45.071Z,10.54
2023-03-22T10:51:22.599Z,10.65
2023-03-22T10:53:53.145Z,10.72
2023-03-22T10:56:20.609Z,10.85
2023-03-22T10:58:49.094Z,10.97
2023-03-22T11:01:25.122Z,11.06
2023-03-22T11:03:56.759Z,11.14
2023-03-22T11:06:26.594Z,11.21
2023-03-22T11:08:57.773Z,11.26
2023-03-22T11:11:36.039Z,11.32
2023-03-22T11:14:07.732Z,11.44
2023-03-22T11:16:51.995Z,11.57
2023-03-22T11:19:23.143Z,11.70
2023-03-22T11:21:50.982Z,11.86
2023-03-22T11:24:18.375Z,12.01
2023-03-22T11:27:20.908Z,12.07
2023-03-22T11:29:53.372Z,12.13
2023-03-22T11:32:29.526Z,12.21
2023-03-22T11:35:04.783Z,12.25
2023-03-22T11:37:31.223Z,12.28
2023-03-22T11:40:01.288Z,12.31
2023-03-22T11:42:28.480Z,12.35
2023-03-22T11:44:56.574Z,12.37
2023-03-22T11:47:26.511Z,12.41
2023-03-22T11:49:56.607Z,12.45
2023-03-22T11:52:26.218Z,12.53
2023-03-22T11:54:54.639Z,12.56
2023-03-22T11:57:25.795Z,12.54
2023-03-22T12:00:17.581Z,12.53
2023-03-22T12:02:55.120Z,12.55
2023-03-22T12:05:26.675Z,12.56
2023-03-22T12:08:16.705Z,12.54
2023-03-22T12:10:50.477Z,12.56
2023-03-22T12:14:02.486Z,12.57
2023-03-22T12:16:36.160Z,12.64
2023-03-22T12:19:50.873Z,12.66
2023-03-22T12:22:20.698Z,12.74
2023-03-22T12:24:47.618Z,12.88
2023-03-22T12:27:24.083Z,13.01
2023-03-22T12:29:59.357Z,13.17
2023-03-22T12:32:35.554Z,13.28
2023-03-22T12:35:16.651Z,13.33
2023-03-22T12:37:57.604Z,13.42
2023-03-22T12:40:33.769Z,13.57
2023-03-22T12:43:06.054Z,13.68
2023-03-22T12:45:40.092Z,13.75
2023-03-22T12:48:13.993Z,13.83
2023-03-22T12:50:56.780Z,13.83
2023-03-22T12:53:30.546Z,13.81
2023-03-22T12:55:59.283Z,13.79
2023-03-22T12:58:26.768Z,13.79
2023-03-22T13:00:58.005Z,13.74
2023-03-22T13:03:36.443Z,13.71
2023-03-22T13:06:32.539Z,13.63
2023-03-22T13:09:01.974Z,13.54
2023-03-22T13:11:28.457Z,13.45
2023-03-22T13:13:55.384Z,13.36
2023-03-22T13:16:40.428Z,13.25
2023-03-22T13:19:26.105Z,13.12
2023-03-22T13:22:14.200Z,13.02
2023-03-22T13:25:04.068Z,12.94
2023-03-22T13:27:53.335Z,12.87
2023-03-22T13:30:21.076Z,12.80
2023-03-22T13:32:53.861Z,12.75
2023-03-22T13:35:27.330Z,12.72
2023-03-22T13:38:02.253Z,12.70
2023-03-22T13:40:37.466Z,12.69
2023-03-22T13:43:22.996Z,12.72
2023-03-22T13:46:17.060Z,12.77
2023-03-22T13:48:46.860Z,12.74
2023-03-22T13:51:16.897Z,12.75
2023-03-22T13:54:04.244Z,12.76
2023-03-22T13:57:01.922Z,12.79
2023-03-22T14:00:14.790Z,12.90
2023-03-22T14:02:51.595Z,13.03
2023-03-22T14:05:26.149Z,13.12
2023-03-22T14:07:59.656Z,13.23
2023-03-22T14:10:47.386Z,13.34
2023-03-22T14:13:54.529Z,13.44
2023-03-22T14:17:02.476Z,13.56
2023-03-22T14:19:38.992Z,13.54
